Victoria, British Columbia

7:54 AM PDT on October 30, 2014 (GMT -0700)
Victoria International | Change Station
CLOSE
Current Station
Airport
Location: Victoria,
Elevation: 62 ft
Nearby Weather Stations

Elev 62 ft 48.65 °N, 123.43 °W | Updated 54 minutes ago

Overcast
Overcast
50 °F
Feels Like 50 °F
N
4
Wind Variable Wind from West

Today is forecast to be nearly the same temperature as yesterday.

Today
High -- | Low -- °F
--% Chance of Precip.
Yesterday
High -- | Low -- °F
Precip. -- in
7:57 AM 5:56 PM
Waxing Crescent, 44% visible
Pressure 29.87 in
Visibility 15.0 miles
Clouds Few 4700 ft
Mostly Cloudy 7600 ft
Overcast 9100 ft
Dew Point 48 °F
Humidity 94%
Rainfall 0.00 in
Snow Depth Not available.
UV 0 out of 12
Pollen Not available.
Air Quality Not available.
Flu Activity Not available.
METAR CYYJ 301400Z 28003KT 15SM FEW047 BKN076 OVC091 10/09 A2987 RMK SC1AC5AC3 SC TR SLP115

More Conditions Fewer Conditions

Pressure 29.87 in
Visibility 15.0 miles
Clouds Few 4700 ft
Mostly Cloudy 7600 ft
Overcast 9100 ft
Dew Point 48 °F
Humidity 94%
Rainfall 0.00 in
Snow Depth Not available.
UV 0 out of 12
Pollen Not available.
Air Quality Not available.
Flu Activity Not available.
METAR CYYJ 301400Z 28003KT 15SM FEW047 BKN076 OVC091 10/09 A2987 RMK SC1AC5AC3 SC TR SLP115

More Conditions Fewer Conditions

10-Day Weather Forecast

Almanac

Astronomy

Oct. 30, 2014 Rise Set
Actual Time
Civil Twilight
Nautical Twilight
Astronomical Twilight
Moon
Length of Visible Light
Length of Day
Tomorrow will be .
, % of the Moon is Illuminated

Today's Extremes

Country Highs Country Lows

Community

WunderPhotos

Upload Photos

1,766,379 photos uploaded!

WunderBlogs® & News

Nearby

Air Quality

  Air Quality AQ Index Pollutant
Not available.

Snow Depth

Station Depth Elevation

Earthquake Activity

City Distance Mag. Time & Date
Minimum magnitude displayed is 2.5.

Coastal Water Temperatures

Place Temperature

Nearby Weather Stations